Shutesbury, Massachusetts
Current Conditions -  °F | °C
As of 1:52 PM on Thursday 23 Oct 2014 (Local Time) from KORE Reporting Station
Light Rain Light Rain  
Wind Chill: 51°   Ceiling: 1600
Heat Index: 51°   Visibility: 7mi
Dew Point: 49°   Wind: 10mph
Humidity: 92%   Direction: 350°N
Pressure: 29.69"   Gusts: NA
Location:  42.46°N, 72.41°W
Report Text: KORE 231752Z AUTO 35009KT 7SM -RA OVC016 11/09 A2969 RMK AO2 SLP054 P0000 60089 T01060094 10106 20089 56014
Loading
Personal Weather Stations






























Interactive Weather Map
Tropical Storm Tracking
New forecast layout! Learn more

10-Day Weather Forecast

Advertisements
Track Severe Weather on mobile